Time;durP1;ratioP1;P1;durP2;ratioP2;P2;SDS_P1;SDS_P2;PMS_P1;PMS_P2;Temp;Humidity;BMP_temperature;BMP_pressure;BME280_temperature;BME280_humidity;BME280_pressure;Samples;Min_cycle;Max_cycle;Signal;HPM_P1;HPM_P2
2021/11/09 00:01:42;;;;;;;12.40;2.90;;;;;;;;;;5097986;28;20791;-63
2021/11/09 00:04:10;;;;;;;14.03;3.97;;;;;;;;;;5097897;28;20200;-63
2021/11/09 00:06:41;;;;;;;7.77;3.17;;;;;;;;;;5098035;28;20233;-63
2021/11/09 00:09:12;;;;;;;8.20;3.20;;;;;;;;;;5097605;28;20264;-63
2021/11/09 00:11:40;;;;;;;10.00;2.70;;;;;;;;;;5097696;28;20259;-63
2021/11/09 00:14:09;;;;;;;12.83;3.47;;;;;;;;;;5097235;28;20731;-63
2021/11/09 00:16:38;;;;;;;11.07;3.43;;;;;;;;;;5097870;28;20209;-63
2021/11/09 00:19:06;;;;;;;8.73;3.20;;;;;;;;;;5097637;28;20751;-63
2021/11/09 00:21:34;;;;;;;6.37;2.73;;;;;;;;;;5097494;28;20767;-63
2021/11/09 00:24:03;;;;;;;6.80;2.80;;;;;;;;;;5097475;28;20255;-63
2021/11/09 00:26:31;;;;;;;11.13;2.80;;;;;;;;;;5097549;28;20202;-63
2021/11/09 00:28:59;;;;;;;7.93;3.00;;;;;;;;;;5088392;28;20222;-63
2021/11/09 00:31:29;;;;;;;6.50;3.23;;;;;;;;;;5077637;28;20226;-63
2021/11/09 00:33:57;;;;;;;11.67;3.60;;;;;;;;;;5086118;28;20233;-64
2021/11/09 00:36:25;;;;;;;16.10;3.67;;;;;;;;;;5097167;28;20209;-63
2021/11/09 00:38:53;;;;;;;9.33;3.27;;;;;;;;;;5090381;28;20222;-63
2021/11/09 00:41:21;;;;;;;8.77;3.17;;;;;;;;;;5077193;28;20210;-63
2021/11/09 00:43:49;;;;;;;5.97;2.73;;;;;;;;;;5077264;28;20234;-63
2021/11/09 00:46:17;;;;;;;9.50;3.00;;;;;;;;;;5077102;28;20350;-63
2021/11/09 00:48:47;;;;;;;6.83;2.90;;;;;;;;;;5081304;28;20275;-63
2021/11/09 00:51:15;;;;;;;12.57;2.87;;;;;;;;;;5081123;28;20229;-63
2021/11/09 00:53:43;;;;;;;15.70;3.73;;;;;;;;;;5080984;28;20230;-64
2021/11/09 00:56:12;;;;;;;9.87;3.73;;;;;;;;;;5081193;28;20232;-63
2021/11/09 00:58:40;;;;;;;9.37;4.60;;;;;;;;;;5080599;28;20238;-64
2021/11/09 01:01:08;;;;;;;8.33;3.23;;;;;;;;;;5081006;28;20628;-63
2021/11/09 01:03:36;;;;;;;15.87;3.97;;;;;;;;;;5081233;28;20226;-63
2021/11/09 01:06:05;;;;;;;8.13;3.30;;;;;;;;;;5080794;28;20202;-63
2021/11/09 01:08:33;;;;;;;8.67;3.87;;;;;;;;;;5080927;28;20226;-63
2021/11/09 01:11:02;;;;;;;9.17;3.73;;;;;;;;;;5087999;28;20225;-63
2021/11/09 01:13:30;;;;;;;8.73;3.40;;;;;;;;;;5100714;28;20267;-63
2021/11/09 01:15:58;;;;;;;9.50;3.20;;;;;;;;;;5101274;28;20220;-63
2021/11/09 01:18:28;;;;;;;12.53;3.47;;;;;;;;;;5101056;28;20228;-63
2021/11/09 01:20:56;;;;;;;11.23;3.83;;;;;;;;;;5100929;28;20233;-63
2021/11/09 01:23:26;;;;;;;14.20;3.60;;;;;;;;;;5100950;28;20240;-63
2021/11/09 01:25:55;;;;;;;15.53;4.00;;;;;;;;;;5100930;28;20209;-63
2021/11/09 01:28:23;;;;;;;9.53;4.23;;;;;;;;;;5096439;28;20291;-63
2021/11/09 01:30:51;;;;;;;8.13;3.37;;;;;;;;;;5080224;28;20677;-63
2021/11/09 01:33:19;;;;;;;12.07;3.33;;;;;;;;;;5083772;28;20256;-63
2021/11/09 01:35:47;;;;;;;15.07;3.47;;;;;;;;;;5100331;28;20679;-63
2021/11/09 01:38:15;;;;;;;8.33;3.63;;;;;;;;;;5098295;28;20629;-63
2021/11/09 01:40:45;;;;;;;14.07;3.90;;;;;;;;;;5080524;28;20241;-63
2021/11/09 01:43:14;;;;;;;12.17;4.27;;;;;;;;;;5080113;28;20202;-63
2021/11/09 01:45:44;;;;;;;7.87;3.27;;;;;;;;;;5080382;28;20233;-63
2021/11/09 01:48:13;;;;;;;7.33;3.97;;;;;;;;;;5079842;28;20229;-63
2021/11/09 01:50:43;;;;;;;9.80;4.43;;;;;;;;;;5081092;28;20203;-63
2021/11/09 01:53:11;;;;;;;9.70;3.50;;;;;;;;;;5100168;28;20225;-63
2021/11/09 01:55:39;;;;;;;13.47;4.27;;;;;;;;;;5100187;28;20288;-63
2021/11/09 01:58:10;;;;;;;11.83;3.30;;;;;;;;;;5099328;28;20666;-63
2021/11/09 02:00:39;;;;;;;11.53;4.03;;;;;;;;;;5100079;28;20206;-63
2021/11/09 02:03:08;;;;;;;9.00;4.00;;;;;;;;;;5099939;28;20286;-63
2021/11/09 02:05:36;;;;;;;8.60;3.80;;;;;;;;;;5100133;28;20209;-64
2021/11/09 02:08:05;;;;;;;12.00;3.70;;;;;;;;;;5100282;28;20264;-63
2021/11/09 02:10:34;;;;;;;10.30;4.00;;;;;;;;;;5099894;28;20711;-63
2021/11/09 02:13:02;;;;;;;10.87;4.30;;;;;;;;;;5099619;28;20202;-63
2021/11/09 02:15:32;;;;;;;9.10;3.80;;;;;;;;;;5099661;28;20739;-63
2021/11/09 02:18:00;;;;;;;8.53;3.73;;;;;;;;;;5099772;28;20313;-64
2021/11/09 02:20:30;;;;;;;11.07;4.10;;;;;;;;;;5099599;28;20201;-63
2021/11/09 02:23:00;;;;;;;11.57;4.37;;;;;;;;;;5099801;28;20206;-63
2021/11/09 02:25:30;;;;;;;12.90;4.47;;;;;;;;;;5099794;28;20229;-63
2021/11/09 02:27:58;;;;;;;13.77;5.47;;;;;;;;;;5098644;28;20282;-63
2021/11/09 02:30:27;;;;;;;7.67;3.80;;;;;;;;;;5079514;28;20240;-63
2021/11/09 02:32:59;;;;;;;13.27;4.00;;;;;;;;;;5079000;28;20728;-63
2021/11/09 02:35:27;;;;;;;14.63;4.27;;;;;;;;;;5086671;28;20262;-64
2021/11/09 02:37:56;;;;;;;11.53;3.73;;;;;;;;;;5099396;28;20446;-63
2021/11/09 02:40:26;;;;;;;10.90;4.47;;;;;;;;;;5079631;28;20475;-63
2021/11/09 02:42:55;;;;;;;10.37;4.63;;;;;;;;;;5078896;28;20292;-63
2021/11/09 02:45:30;;;;;;;9.57;4.93;;;;;;;;;;5078854;28;20255;-63
2021/11/09 02:48:02;;;;;;;13.30;5.30;;;;;;;;;;5078734;28;20225;-63
2021/11/09 02:50:33;;;;;;;7.93;4.13;;;;;;;;;;5079115;28;20241;-63
2021/11/09 02:53:05;;;;;;;6.60;4.13;;;;;;;;;;5078949;28;20290;-63
2021/11/09 02:55:38;;;;;;;13.40;4.83;;;;;;;;;;5078681;28;20484;-63
2021/11/09 02:58:12;;;;;;;9.53;4.97;;;;;;;;;;5085932;28;20474;-63
2021/11/09 03:00:50;;;;;;;10.43;5.23;;;;;;;;;;5098813;28;20443;-63
2021/11/09 03:03:23;;;;;;;14.73;4.33;;;;;;;;;;5098814;28;20475;-63
2021/11/09 03:05:58;;;;;;;9.57;4.57;;;;;;;;;;5098746;28;20919;-63
2021/11/09 03:08:30;;;;;;;9.17;4.23;;;;;;;;;;5098836;28;20463;-63
2021/11/09 03:11:01;;;;;;;11.20;5.20;;;;;;;;;;5097886;28;20211;-63
2021/11/09 03:13:29;;;;;;;10.07;4.67;;;;;;;;;;5098587;28;20444;-63
2021/11/09 03:16:01;;;;;;;13.17;6.10;;;;;;;;;;5098626;28;20440;-63
2021/11/09 03:18:36;;;;;;;10.43;5.53;;;;;;;;;;5098491;28;20965;-63
2021/11/09 03:40:31;;;;;;;11.13;4.67;;;;;;;;;;5087191;28;20288;-63
2021/11/09 03:45:46;;;;;;;15.27;5.13;;;;;;;;;;5098434;28;20205;-63
2021/11/09 03:48:16;;;;;;;11.53;4.93;;;;;;;;;;5097953;28;20467;-63
2021/11/09 03:50:45;;;;;;;11.87;4.50;;;;;;;;;;5097999;28;20790;-63
2021/11/09 03:53:16;;;;;;;12.63;5.90;;;;;;;;;;5096940;28;20194;-63
2021/11/09 03:56:05;;;;;;;10.90;4.50;;;;;;;;;;5098134;28;20231;-63
2021/11/09 03:58:37;;;;;;;9.07;5.27;;;;;;;;;;5098518;28;20455;-63
2021/11/09 04:01:09;;;;;;;9.70;4.93;;;;;;;;;;5098654;28;20454;-63
2021/11/09 04:03:55;;;;;;;13.67;5.57;;;;;;;;;;5097733;28;20550;-63
2021/11/09 04:06:31;;;;;;;9.23;4.67;;;;;;;;;;5097393;28;20211;-63
2021/11/09 04:09:05;;;;;;;11.37;5.10;;;;;;;;;;5097738;28;20229;-63
2021/11/09 04:11:41;;;;;;;14.20;5.57;;;;;;;;;;5097908;28;20292;-63
2021/11/09 04:14:17;;;;;;;15.10;5.00;;;;;;;;;;5097676;28;20211;-63
2021/11/09 04:16:52;;;;;;;10.80;5.20;;;;;;;;;;5097732;28;20219;-63
2021/11/09 04:19:28;;;;;;;10.90;5.17;;;;;;;;;;5097613;28;20231;-63
2021/11/09 04:22:48;;;;;;;12.07;5.07;;;;;;;;;;5096893;28;20580;-63
2021/11/09 04:28:03;;;;;;;14.97;5.53;;;;;;;;;;5097246;28;20792;-63
2021/11/09 04:30:45;;;;;;;9.50;5.00;;;;;;;;;;5087195;28;20212;-63
2021/11/09 04:33:57;;;;;;;9.03;5.23;;;;;;;;;;5097710;28;20205;-63
2021/11/09 04:53:29;;;;;;;11.17;5.93;;;;;;;;;;5156922;27;20953;-62
2021/11/09 05:02:00;;;;;;;16.83;5.20;;;;;;;;;;5114045;28;20438;-64
2021/11/09 05:10:03;;;;;;;12.30;5.77;;;;;;;;;;5156693;27;20560;-63
2021/11/09 05:12:31;;;;;;;13.87;5.70;;;;;;;;;;5156008;27;20850;-64
2021/11/09 05:15:00;;;;;;;12.17;5.73;;;;;;;;;;5133878;27;20465;-64
2021/11/09 05:17:28;;;;;;;13.30;5.47;;;;;;;;;;5132445;27;20877;-64
2021/11/09 05:19:56;;;;;;;9.97;6.07;;;;;;;;;;5134986;27;20224;-64
2021/11/09 05:22:24;;;;;;;10.83;6.70;;;;;;;;;;5131797;27;20203;-64
2021/11/09 05:24:52;;;;;;;13.47;6.37;;;;;;;;;;5135395;27;20207;-64
2021/11/09 05:27:21;;;;;;;9.20;5.83;;;;;;;;;;5123945;27;20443;-65
2021/11/09 05:29:50;;;;;;;17.37;7.07;;;;;;;;;;5125513;28;20220;-65
2021/11/09 05:32:18;;;;;;;12.20;5.63;;;;;;;;;;5121647;28;20589;-64
2021/11/09 05:34:46;;;;;;;10.10;5.63;;;;;;;;;;5120427;27;20207;-64
2021/11/09 05:37:19;;;;;;;9.87;5.57;;;;;;;;;;5127772;28;20448;-64
2021/11/09 05:39:49;;;;;;;13.23;6.77;;;;;;;;;;5134820;27;20486;-64
2021/11/09 05:42:17;;;;;;;10.17;6.03;;;;;;;;;;5129285;27;20441;-64
2021/11/09 05:44:47;;;;;;;13.87;6.73;;;;;;;;;;5122233;28;20802;-64
2021/11/09 05:47:15;;;;;;;9.77;5.87;;;;;;;;;;5122890;28;20447;-64
2021/11/09 05:49:43;;;;;;;11.57;6.53;;;;;;;;;;5119169;28;20729;-64
2021/11/09 05:52:11;;;;;;;10.13;5.47;;;;;;;;;;5121258;27;20231;-64
2021/11/09 05:54:40;;;;;;;13.33;7.30;;;;;;;;;;5117370;28;20500;-64
2021/11/09 05:57:08;;;;;;;12.10;5.93;;;;;;;;;;5119168;28;20437;-64
2021/11/09 05:59:35;;;;;;;12.13;6.90;;;;;;;;;;5122274;27;20459;-64
2021/11/09 06:02:06;;;;;;;11.10;5.93;;;;;;;;;;5119682;27;20454;-64
2021/11/09 06:04:34;;;;;;;10.87;5.83;;;;;;;;;;5109212;27;20427;-64
2021/11/09 06:07:02;;;;;;;9.43;5.70;;;;;;;;;;5106832;28;20439;-69
2021/11/09 06:09:30;;;;;;;9.50;5.57;;;;;;;;;;5108856;28;21025;-64
2021/11/09 06:11:59;;;;;;;13.37;6.07;;;;;;;;;;5110573;28;20475;-64
2021/11/09 06:14:27;;;;;;;10.73;6.07;;;;;;;;;;5107123;28;20528;-64
2021/11/09 06:16:58;;;;;;;12.87;6.00;;;;;;;;;;5120806;28;20445;-64
2021/11/09 06:19:28;;;;;;;10.47;6.43;;;;;;;;;;5120426;28;20477;-64
2021/11/09 06:21:56;;;;;;;13.13;6.87;;;;;;;;;;5120493;28;20450;-64
2021/11/09 06:24:24;;;;;;;13.77;6.70;;;;;;;;;;5120194;28;20686;-64
2021/11/09 06:26:53;;;;;;;13.93;6.37;;;;;;;;;;5120541;28;20727;-64
2021/11/09 06:29:21;;;;;;;13.10;6.13;;;;;;;;;;5112292;28;20224;-63
2021/11/09 06:31:49;;;;;;;15.57;6.37;;;;;;;;;;5108050;28;20653;-64
2021/11/09 06:34:18;;;;;;;12.80;6.10;;;;;;;;;;5114640;28;20635;-63
2021/11/09 06:36:48;;;;;;;14.30;6.50;;;;;;;;;;5120226;28;20443;-63
2021/11/09 06:39:16;;;;;;;11.57;6.30;;;;;;;;;;5120185;28;20462;-63
2021/11/09 06:41:44;;;;;;;15.10;6.63;;;;;;;;;;5119884;28;21022;-63
2021/11/09 06:44:18;;;;;;;14.17;7.10;;;;;;;;;;5120139;28;20987;-63
2021/11/09 06:46:46;;;;;;;13.13;6.70;;;;;;;;;;5120299;28;20500;-63
2021/11/09 06:49:14;;;;;;;12.43;6.63;;;;;;;;;;5120068;28;20225;-63
2021/11/09 06:51:42;;;;;;;12.47;6.37;;;;;;;;;;5119768;28;20240;-63
2021/11/09 06:54:12;;;;;;;15.27;6.20;;;;;;;;;;5120116;28;20447;-63
2021/11/09 06:56:40;;;;;;;13.00;6.67;;;;;;;;;;5120039;28;20659;-63
2021/11/09 06:59:09;;;;;;;11.30;5.57;;;;;;;;;;5119959;28;20465;-63
2021/11/09 07:01:37;;;;;;;15.63;7.27;;;;;;;;;;5120365;28;20453;-64
2021/11/09 07:04:05;;;;;;;10.83;6.00;;;;;;;;;;5119709;28;20549;-63
2021/11/09 07:06:34;;;;;;;14.23;7.07;;;;;;;;;;5119609;28;20529;-63
2021/11/09 07:09:02;;;;;;;13.83;7.30;;;;;;;;;;5119775;28;20465;-63
2021/11/09 07:11:31;;;;;;;11.57;6.83;;;;;;;;;;5116022;28;20439;-63
2021/11/09 07:13:59;;;;;;;14.63;7.23;;;;;;;;;;5119335;28;20482;-63
2021/11/09 07:16:27;;;;;;;12.40;6.70;;;;;;;;;;5119135;28;20525;-63
2021/11/09 07:19:00;;;;;;;8.30;6.27;;;;;;;;;;5119480;28;20278;-63
2021/11/09 07:21:28;;;;;;;13.83;6.63;;;;;;;;;;5119464;28;20215;-64
2021/11/09 07:23:56;;;;;;;11.83;6.60;;;;;;;;;;5119297;28;20664;-63
2021/11/09 07:26:25;;;;;;;12.73;6.67;;;;;;;;;;5119527;28;20201;-63
2021/11/09 07:28:54;;;;;;;12.87;6.10;;;;;;;;;;5119220;28;20221;-63
2021/11/09 07:31:22;;;;;;;12.57;6.80;;;;;;;;;;5119407;28;20529;-63
2021/11/09 07:33:51;;;;;;;14.37;6.93;;;;;;;;;;5111199;28;20544;-63
2021/11/09 07:36:19;;;;;;;14.07;7.50;;;;;;;;;;5116454;28;20525;-63
2021/11/09 07:38:47;;;;;;;12.37;6.17;;;;;;;;;;5119166;28;20463;-63
2021/11/09 07:41:15;;;;;;;12.53;6.93;;;;;;;;;;5118791;28;20442;-63
2021/11/09 07:43:43;;;;;;;13.37;7.40;;;;;;;;;;5118800;27;21135;-65
2021/11/09 07:46:13;;;;;;;8.70;6.30;;;;;;;;;;5119165;28;20445;-63
2021/11/09 07:48:41;;;;;;;12.63;6.50;;;;;;;;;;5119057;28;20467;-64
2021/11/09 07:51:09;;;;;;;9.97;6.00;;;;;;;;;;5118549;28;20969;-64
2021/11/09 07:53:39;;;;;;;8.93;6.73;;;;;;;;;;5118920;27;20478;-63
2021/11/09 07:56:16;;;;;;;13.17;6.93;;;;;;;;;;5108150;28;20458;-63
2021/11/09 07:58:53;;;;;;;14.47;6.70;;;;;;;;;;5118781;28;20465;-63
2021/11/09 08:01:30;;;;;;;13.07;6.47;;;;;;;;;;5119402;28;20480;-63
2021/11/09 08:04:07;;;;;;;11.57;6.70;;;;;;;;;;5118883;28;20796;-63
2021/11/09 08:06:46;;;;;;;13.50;6.77;;;;;;;;;;5118573;28;20438;-63
2021/11/09 08:09:20;;;;;;;13.87;6.77;;;;;;;;;;5136269;27;20462;-63
2021/11/09 08:11:48;;;;;;;13.20;6.07;;;;;;;;;;5120996;27;20914;-64
2021/11/09 08:14:16;;;;;;;11.23;6.10;;;;;;;;;;5118321;28;20486;-63
2021/11/09 08:16:47;;;;;;;11.27;6.30;;;;;;;;;;5118680;28;20442;-63
2021/11/09 08:19:15;;;;;;;11.33;6.50;;;;;;;;;;5118492;28;20468;-64
2021/11/09 08:21:43;;;;;;;11.80;6.67;;;;;;;;;;5118376;28;20446;-64
2021/11/09 08:24:11;;;;;;;13.23;6.47;;;;;;;;;;5104789;28;20443;-64
2021/11/09 08:26:39;;;;;;;12.47;6.73;;;;;;;;;;5118120;28;20444;-64
2021/11/09 08:29:07;;;;;;;11.20;6.37;;;;;;;;;;5118100;28;20463;-64
2021/11/09 08:31:36;;;;;;;14.40;6.77;;;;;;;;;;5107688;28;20205;-65
2021/11/09 08:34:06;;;;;;;12.17;6.77;;;;;;;;;;5105927;28;20224;-65
2021/11/09 08:36:34;;;;;;;9.17;6.43;;;;;;;;;;5108323;28;20644;-65
2021/11/09 08:39:04;;;;;;;14.50;6.57;;;;;;;;;;5107800;28;20221;-64
2021/11/09 08:41:38;;;;;;;13.13;6.83;;;;;;;;;;5118093;28;20208;-64
2021/11/09 08:44:08;;;;;;;14.67;6.77;;;;;;;;;;5117816;28;20208;-65
2021/11/09 08:46:40;;;;;;;14.27;6.43;;;;;;;;;;5118650;28;20212;-65
2021/11/09 08:49:13;;;;;;;14.83;6.17;;;;;;;;;;5118156;28;20229;-64
2021/11/09 08:51:41;;;;;;;14.53;6.67;;;;;;;;;;5117946;28;20228;-65
2021/11/09 08:54:15;;;;;;;13.80;6.83;;;;;;;;;;5117954;28;20232;-64
2021/11/09 09:05:05;;;;;;;12.23;6.70;;;;;;;;;;5118036;28;20204;-64
2021/11/09 09:07:34;;;;;;;7.97;6.27;;;;;;;;;;5118104;28;20211;-64
2021/11/09 09:10:04;;;;;;;16.23;6.83;;;;;;;;;;5119524;28;20288;-64
2021/11/09 09:12:34;;;;;;;9.57;6.30;;;;;;;;;;5138102;27;20291;-64
2021/11/09 09:15:04;;;;;;;16.93;6.60;;;;;;;;;;5138044;27;20690;-65
2021/11/09 09:17:34;;;;;;;14.80;7.33;;;;;;;;;;5138192;27;20208;-64
2021/11/09 09:20:08;;;;;;;12.37;7.00;;;;;;;;;;5138136;27;20208;-65
2021/11/09 09:22:41;;;;;;;14.63;7.10;;;;;;;;;;5138012;27;20253;-64
2021/11/09 09:31:12;;;;;;;13.57;7.37;;;;;;;;;;5047463;28;20214;-64
2021/11/09 09:53:21;;;;;;;12.07;6.40;;;;;;;;;;5119996;28;20558;-64
2021/11/09 09:55:51;;;;;;;13.10;6.10;;;;;;;;;;5120694;27;20506;-65
2021/11/09 09:58:19;;;;;;;12.67;6.80;;;;;;;;;;5120767;28;20461;-64
2021/11/09 10:00:48;;;;;;;10.83;6.50;;;;;;;;;;5121367;28;20443;-64
2021/11/09 10:03:16;;;;;;;14.90;7.37;;;;;;;;;;5121333;28;20450;-64
2021/11/09 10:05:44;;;;;;;11.80;7.40;;;;;;;;;;5115709;28;20451;-65
2021/11/09 10:08:16;;;;;;;14.60;7.30;;;;;;;;;;5115052;28;20467;-62
2021/11/09 10:10:46;;;;;;;16.43;7.23;;;;;;;;;;5120513;28;20443;-65
2021/11/09 10:13:17;;;;;;;13.17;7.80;;;;;;;;;;5120477;28;20446;-64
2021/11/09 10:15:46;;;;;;;11.87;7.97;;;;;;;;;;5120566;28;20482;-62
2021/11/09 10:18:16;;;;;;;14.77;7.10;;;;;;;;;;5120288;27;20549;-65
2021/11/09 10:20:46;;;;;;;13.57;7.63;;;;;;;;;;5120379;27;20446;-64
2021/11/09 10:23:17;;;;;;;9.97;6.93;;;;;;;;;;5120307;28;20438;-64
2021/11/09 10:25:46;;;;;;;13.40;6.93;;;;;;;;;;5120282;28;20853;-64
2021/11/09 10:28:18;;;;;;;15.07;7.33;;;;;;;;;;5120107;28;20464;-64
2021/11/09 10:30:47;;;;;;;13.63;7.60;;;;;;;;;;5120573;28;20446;-64
2021/11/09 10:33:16;;;;;;;14.87;7.70;;;;;;;;;;5117704;28;20455;-64
2021/11/09 10:35:44;;;;;;;11.17;7.00;;;;;;;;;;5114430;28;20485;-64
2021/11/09 10:38:13;;;;;;;15.60;7.77;;;;;;;;;;5118284;28;20476;-64
2021/11/09 10:40:49;;;;;;;16.17;7.37;;;;;;;;;;5119868;28;20838;-64
2021/11/09 10:43:19;;;;;;;13.07;7.37;;;;;;;;;;5113023;28;20438;-64
2021/11/09 10:45:48;;;;;;;15.27;8.03;;;;;;;;;;5104510;28;20457;-64
2021/11/09 10:48:17;;;;;;;15.13;7.60;;;;;;;;;;5104819;28;20833;-64
2021/11/09 10:50:47;;;;;;;13.97;7.63;;;;;;;;;;5106031;28;20873;-64
2021/11/09 10:53:21;;;;;;;13.50;7.07;;;;;;;;;;5106408;28;20431;-64
2021/11/09 10:56:00;;;;;;;15.27;7.93;;;;;;;;;;5105885;28;20978;-64
2021/11/09 11:06:33;;;;;;;13.70;7.10;;;;;;;;;;5108452;28;20446;-64
2021/11/09 11:09:02;;;;;;;13.03;8.00;;;;;;;;;;5104439;28;20455;-64
2021/11/09 11:11:53;;;;;;;14.83;8.03;;;;;;;;;;5105798;28;20671;-64
2021/11/09 11:14:22;;;;;;;17.13;7.87;;;;;;;;;;5104819;28;20260;-64
2021/11/09 11:16:51;;;;;;;15.73;7.57;;;;;;;;;;5107365;28;20435;-64
2021/11/09 11:19:20;;;;;;;16.83;8.23;;;;;;;;;;5104499;28;20729;-64
2021/11/09 11:21:50;;;;;;;14.33;8.13;;;;;;;;;;5105820;28;20197;-64
2021/11/09 11:24:21;;;;;;;12.03;7.30;;;;;;;;;;5106632;28;20426;-64
2021/11/09 11:26:50;;;;;;;12.60;7.40;;;;;;;;;;5106327;28;20656;-64
2021/11/09 11:29:22;;;;;;;13.23;7.40;;;;;;;;;;5108240;28;20248;-64
2021/11/09 11:31:51;;;;;;;14.50;7.93;;;;;;;;;;5101601;27;20201;-64
2021/11/09 11:34:20;;;;;;;13.17;8.30;;;;;;;;;;5121313;27;20206;-64
2021/11/09 11:36:49;;;;;;;11.57;7.63;;;;;;;;;;5106226;28;20668;-64
2021/11/09 11:39:20;;;;;;;12.33;6.80;;;;;;;;;;5105775;28;20213;-64
2021/11/09 11:41:52;;;;;;;16.00;8.03;;;;;;;;;;5106060;28;20559;-64
2021/11/09 11:44:23;;;;;;;9.93;6.87;;;;;;;;;;5113041;28;20208;-64
2021/11/09 11:46:55;;;;;;;12.70;7.17;;;;;;;;;;5118756;28;20239;-64
2021/11/09 11:49:28;;;;;;;18.03;7.93;;;;;;;;;;5118640;28;20225;-64
2021/11/09 11:52:04;;;;;;;13.70;7.13;;;;;;;;;;5103172;28;20568;-64
2021/11/09 11:54:40;;;;;;;12.07;7.57;;;;;;;;;;5106614;28;20209;-63
2021/11/09 11:57:09;;;;;;;17.73;7.73;;;;;;;;;;5106949;28;20201;-64
2021/11/09 11:59:42;;;;;;;11.20;6.87;;;;;;;;;;5106155;28;20252;-64
2021/11/09 12:02:11;;;;;;;14.67;6.57;;;;;;;;;;5102640;28;20639;-63
2021/11/09 12:04:50;;;;;;;12.47;7.03;;;;;;;;;;5104016;28;20205;-64
2021/11/09 12:07:19;;;;;;;16.10;7.17;;;;;;;;;;5106463;28;20193;-63
2021/11/09 12:09:48;;;;;;;12.63;7.00;;;;;;;;;;5104888;28;20249;-63
2021/11/09 12:12:33;;;;;;;13.83;7.20;;;;;;;;;;5106046;28;20228;-64
2021/11/09 12:15:04;;;;;;;16.40;7.40;;;;;;;;;;5111460;28;20225;-64
2021/11/09 12:17:34;;;;;;;12.13;7.17;;;;;;;;;;5111961;28;20281;-64
2021/11/09 12:20:05;;;;;;;15.37;7.37;;;;;;;;;;5103857;28;20639;-64
2021/11/09 12:22:44;;;;;;;13.33;7.47;;;;;;;;;;5106259;28;20285;-64
2021/11/09 12:25:15;;;;;;;17.97;6.77;;;;;;;;;;5117799;27;20232;-64
2021/11/09 12:27:59;;;;;;;11.40;6.80;;;;;;;;;;5138552;27;20235;-64
2021/11/09 12:30:57;;;;;;;12.40;7.43;;;;;;;;;;5103166;28;20611;-63
2021/11/09 12:33:31;;;;;;;11.77;6.90;;;;;;;;;;5112743;28;20670;-64
2021/11/09 12:36:27;;;;;;;12.73;6.37;;;;;;;;;;5126211;27;20269;-64
2021/11/09 12:39:02;;;;;;;9.97;6.67;;;;;;;;;;5129958;27;20225;-64
2021/11/09 12:41:33;;;;;;;15.00;7.50;;;;;;;;;;5117581;28;20219;-64
2021/11/09 12:44:03;;;;;;;10.30;6.67;;;;;;;;;;5110519;28;20281;-64
2021/11/09 12:46:35;;;;;;;13.93;6.87;;;;;;;;;;5105587;28;20212;-64
2021/11/09 12:49:04;;;;;;;10.93;6.40;;;;;;;;;;5115622;28;20752;-64
2021/11/09 12:51:34;;;;;;;15.67;7.70;;;;;;;;;;5117495;28;20301;-65
2021/11/09 12:54:05;;;;;;;13.40;7.23;;;;;;;;;;5117572;28;20230;-65
2021/11/09 12:56:35;;;;;;;12.93;6.87;;;;;;;;;;5117917;28;20221;-64
2021/11/09 12:59:06;;;;;;;14.43;7.07;;;;;;;;;;5117453;28;20659;-64
2021/11/09 13:01:51;;;;;;;9.70;6.83;;;;;;;;;;5117840;28;20268;-65
2021/11/09 13:04:21;;;;;;;10.27;6.93;;;;;;;;;;5117621;28;20215;-65
2021/11/09 13:06:58;;;;;;;13.50;6.93;;;;;;;;;;5108143;28;20203;-64
2021/11/09 13:09:28;;;;;;;9.63;6.80;;;;;;;;;;5123444;28;20231;-75
2021/11/09 13:11:58;;;;;;;14.80;7.60;;;;;;;;;;5137713;27;20253;-72
2021/11/09 13:14:47;;;;;;;13.73;7.13;;;;;;;;;;5121890;27;20228;-73
2021/11/09 13:17:33;;;;;;;12.20;7.47;;;;;;;;;;5108390;28;20208;-77
2021/11/09 13:20:06;;;;;;;13.17;7.43;;;;;;;;;;5112081;28;20221;-74
2021/11/09 13:22:34;;;;;;;14.40;7.57;;;;;;;;;;5109954;28;20229;-75
2021/11/09 13:25:04;;;;;;;12.60;7.97;;;;;;;;;;5107792;28;20232;-75
2021/11/09 13:27:43;;;;;;;13.57;7.77;;;;;;;;;;5108124;28;20660;-76
2021/11/09 13:30:13;;;;;;;14.67;8.93;;;;;;;;;;5111074;27;20200;-75
2021/11/09 13:32:43;;;;;;;38.07;30.13;;;;;;;;;;5109328;28;20228;-75
2021/11/09 13:35:15;;;;;;;16.60;9.80;;;;;;;;;;5106074;28;20256;-74
2021/11/09 13:37:43;;;;;;;12.87;8.57;;;;;;;;;;5107052;28;20285;-75
2021/11/09 13:40:12;;;;;;;15.10;8.13;;;;;;;;;;5109802;28;20233;-75
2021/11/09 13:42:41;;;;;;;11.13;7.93;;;;;;;;;;5106170;28;20246;-65
2021/11/09 13:45:14;;;;;;;15.50;8.20;;;;;;;;;;5107177;28;20964;-63
2021/11/09 13:47:44;;;;;;;16.30;7.77;;;;;;;;;;5111469;28;20197;-64
2021/11/09 13:50:14;;;;;;;11.73;8.27;;;;;;;;;;5107610;28;20295;-64
2021/11/09 13:52:46;;;;;;;12.23;6.80;;;;;;;;;;5131128;27;20231;-64
2021/11/09 13:55:15;;;;;;;11.33;7.70;;;;;;;;;;5141961;27;20215;-63
2021/11/09 13:57:43;;;;;;;13.63;7.93;;;;;;;;;;5141258;27;20276;-64
2021/11/09 14:00:19;;;;;;;17.73;7.60;;;;;;;;;;5141579;27;20738;-64
2021/11/09 14:02:57;;;;;;;10.47;8.00;;;;;;;;;;5135137;27;20639;-64
2021/11/09 14:08:35;;;;;;;14.97;7.67;;;;;;;;;;5123162;27;20612;-63
2021/11/09 14:13:57;;;;;;;11.10;7.07;;;;;;;;;;5117510;27;20441;-63
2021/11/09 14:16:37;;;;;;;16.83;8.53;;;;;;;;;;5132381;27;20763;-63
2021/11/09 14:19:08;;;;;;;19.63;8.40;;;;;;;;;;5118088;28;20229;-64
2021/11/09 14:21:37;;;;;;;17.13;8.20;;;;;;;;;;5112631;28;20212;-63
2021/11/09 14:24:13;;;;;;;12.60;8.47;;;;;;;;;;5118729;28;20287;-63
2021/11/09 14:26:41;;;;;;;15.77;8.40;;;;;;;;;;5107023;28;20204;-64
2021/11/09 14:29:17;;;;;;;16.57;8.33;;;;;;;;;;5108579;28;20222;-63
2021/11/09 14:31:56;;;;;;;13.13;7.70;;;;;;;;;;5106446;28;20259;-63
2021/11/09 14:34:26;;;;;;;11.10;7.33;;;;;;;;;;5107641;28;20265;-63
2021/11/09 14:37:05;;;;;;;19.30;8.50;;;;;;;;;;5106641;28;20224;-63
2021/11/09 14:39:39;;;;;;;13.97;7.37;;;;;;;;;;5111674;28;20235;-63
2021/11/09 14:42:17;;;;;;;14.40;8.50;;;;;;;;;;5105823;28;20450;-64
2021/11/09 14:45:12;;;;;;;11.80;8.53;;;;;;;;;;5106226;28;20434;-64
2021/11/09 14:47:43;;;;;;;18.60;8.70;;;;;;;;;;5106408;28;20239;-64
2021/11/09 14:50:20;;;;;;;16.50;8.00;;;;;;;;;;5100984;28;20379;-64
2021/11/09 14:52:48;;;;;;;11.43;7.50;;;;;;;;;;5103246;28;20471;-63
2021/11/09 14:55:24;;;;;;;13.70;7.67;;;;;;;;;;5104615;28;20284;-63
2021/11/09 14:57:53;;;;;;;16.10;8.13;;;;;;;;;;5104374;28;20554;-63
2021/11/09 15:00:21;;;;;;;13.97;8.40;;;;;;;;;;5106324;28;20434;-63
2021/11/09 15:02:59;;;;;;;12.93;7.87;;;;;;;;;;5106215;28;20280;-63
2021/11/09 15:05:31;;;;;;;12.97;7.43;;;;;;;;;;5106740;28;20451;-63
2021/11/09 15:08:09;;;;;;;14.93;8.30;;;;;;;;;;5105307;28;20253;-63
2021/11/09 15:10:47;;;;;;;15.33;9.10;;;;;;;;;;5106490;28;20447;-63
2021/11/09 15:13:29;;;;;;;18.63;9.10;;;;;;;;;;5106023;28;20439;-63
2021/11/09 15:27:23;;;;;;;16.60;9.23;;;;;;;;;;5105393;28;21006;-64
2021/11/09 15:29:54;;;;;;;16.43;9.23;;;;;;;;;;5108105;28;21009;-64
2021/11/09 15:32:28;;;;;;;16.60;8.83;;;;;;;;;;5107122;28;20519;-64
2021/11/09 15:35:08;;;;;;;22.47;8.83;;;;;;;;;;5108346;28;20494;-64
2021/11/09 15:37:40;;;;;;;17.27;8.33;;;;;;;;;;5103207;28;20558;-64
2021/11/09 15:40:12;;;;;;;14.73;9.13;;;;;;;;;;5108848;28;20942;-64
2021/11/09 15:42:41;;;;;;;16.90;8.97;;;;;;;;;;5103810;28;20518;-64
2021/11/09 15:45:10;;;;;;;15.87;9.47;;;;;;;;;;5107698;28;20530;-64
2021/11/09 15:47:38;;;;;;;17.20;8.93;;;;;;;;;;5116079;27;20487;-65
2021/11/09 15:50:07;;;;;;;13.23;8.37;;;;;;;;;;5134145;27;20488;-64
2021/11/09 15:52:36;;;;;;;14.60;8.50;;;;;;;;;;5111791;28;20479;-64
2021/11/09 15:55:06;;;;;;;12.57;8.47;;;;;;;;;;5115347;28;20852;-64
2021/11/09 15:57:34;;;;;;;15.87;9.13;;;;;;;;;;5117345;28;20507;-64
2021/11/09 16:00:03;;;;;;;15.63;9.90;;;;;;;;;;5118366;27;21016;-64
2021/11/09 16:02:32;;;;;;;17.40;9.27;;;;;;;;;;5111739;28;20985;-64
2021/11/09 16:05:00;;;;;;;15.90;9.10;;;;;;;;;;5135805;27;20473;-64
2021/11/09 16:07:29;;;;;;;17.60;9.67;;;;;;;;;;5139189;27;20513;-64
2021/11/09 16:09:58;;;;;;;15.97;9.80;;;;;;;;;;5139063;27;20540;-64
2021/11/09 16:12:28;;;;;;;15.07;9.20;;;;;;;;;;5138895;27;20481;-64
2021/11/09 16:14:58;;;;;;;14.83;8.93;;;;;;;;;;5135556;27;20474;-64
2021/11/09 16:17:26;;;;;;;16.07;9.10;;;;;;;;;;5111172;28;20563;-64
2021/11/09 16:19:54;;;;;;;14.50;9.30;;;;;;;;;;5118018;28;20562;-64
2021/11/09 16:22:25;;;;;;;15.67;8.70;;;;;;;;;;5113684;28;20534;-64
2021/11/09 16:24:53;;;;;;;15.87;9.70;;;;;;;;;;5122082;27;20497;-64
2021/11/09 16:27:22;;;;;;;17.63;10.17;;;;;;;;;;5138509;27;20529;-64
2021/11/09 16:30:05;;;;;;;13.47;8.57;;;;;;;;;;5114166;28;20458;-64
2021/11/09 16:32:36;;;;;;;17.63;9.37;;;;;;;;;;5104337;27;20494;-64
2021/11/09 16:35:09;;;;;;;17.07;9.17;;;;;;;;;;5106109;28;20482;-63
2021/11/09 16:37:38;;;;;;;16.37;8.10;;;;;;;;;;5124115;27;20561;-64
2021/11/09 16:40:09;;;;;;;18.50;8.90;;;;;;;;;;5117336;28;20462;-63
2021/11/09 16:42:40;;;;;;;16.93;8.33;;;;;;;;;;5130672;27;20527;-64
2021/11/09 16:45:09;;;;;;;18.67;9.33;;;;;;;;;;5136967;27;20530;-64
2021/11/09 16:47:40;;;;;;;15.53;8.77;;;;;;;;;;5136593;27;20530;-64